Airport Name : Kosice

Other Name : Kosice

ICAO : LZKZ

IATA : KSC

FAA :

Latitude : 48.663055

Longitude : 21.241112

Country : Slovakia

Local Date and Time : 1/23/2018 8:38:00 AM

 

TAF (Terminal Aerodrome Forecast)

TAF LZKZ 230500Z 2306/2406 35004KT CAVOK TEMPO 2306/2308 VRB02KT 5000 BR SCT030 BKN080 BECMG 2321/2323 BKN033 BKN060 TEMPO 2400/2406 22005KT 2000 -SN SCT010 BKN015 OVC030

 

METAR (METeorological Aerodrome Report)

LZKZ 230730Z 03004KT CAVOK M08/M10 Q1021 NOSIG

LZKZ 230700Z 35003KT CAVOK M07/M09 Q1021 NOSIG

LZKZ 230630Z VRB02KT CAVOK M07/M09 Q1020 NOSIG

LZKZ 230600Z 33002KT CAVOK M07/M09 Q1020 NOSIG

LZKZ 230530Z 04001KT CAVOK M06/M08 Q1020 NOSIG

LZKZ 230500Z VRB02KT CAVOK M06/M08 Q1019

LZKZ 230430Z 26002KT CAVOK M07/M08 Q1019

LZKZ 230400Z 24002KT CAVOK M07/M09 Q1019